Columbia Falls, MT

9:29 PM MDT on July 29, 2015 (GMT -0600)
Tamarack Lane | | Change Station
CLOSE
Current Station
Personal Weather Station
Location: Columbia Falls, Mt
Elevation: 3133 ft
Nearby Weather Stations

Elev 3133 ft 48.38 °N, 114.19 °W | Updated 19 minutes ago

Clear
Clear
77.4 °F
Feels Like 77 °F
N
1.1
Wind Variable Wind from West
Gusts 1.1 mph

Today
High -- | Low -- °F
--% Chance of Precip.
Yesterday
High -- | Low -- °F
Precip. -- in
6:07 AM 9:17 PM
Waxing Gibbous, 98% visible
Pressure 30.09 in
Visibility 10.0 miles
Clouds Clear
Heat Index 77 °F
Dew Point 38 °F
Humidity 24%
Rainfall 0.00 in
Snow Depth Not available.
UV 0 out of 12
Pollen 5.50 out of 12
Air Quality Not available.
Flu Activity Not available.
METAR KCTB 300256Z AUTO 28007KT 10SM CLR 20/03 A3016 RMK AO2 SLP188 T02000033 53007

More Conditions Fewer Conditions

Pressure 30.09 in
Visibility 10.0 miles
Clouds Clear
Heat Index 77 °F
Dew Point 38 °F
Humidity 24%
Rainfall 0.00 in
Snow Depth Not available.
UV 0 out of 12
Pollen 5.50 out of 12
Air Quality Not available.
Flu Activity Not available.
METAR KCTB 300256Z AUTO 28007KT 10SM CLR 20/03 A3016 RMK AO2 SLP188 T02000033 53007

More Conditions Fewer Conditions

10-Day Weather Forecast

×

Almanac

Astronomy

Jul. 29, 2015 Rise Set
Actual Time
Civil Twilight
Nautical Twilight
Astronomical Twilight
Moon
Length of Visible Light
Length of Day
Tomorrow will be .
, % of the Moon is Illuminated

Today's Extremes

State Highs State Lows

Community

WunderPhotos

Upload Photos

1,842,288 photos uploaded!

WunderBlogs® & News

Nearby

Air Quality

  Air Quality AQ Index Pollutant
Not available.

Snow Depth

Station Depth Elevation

Earthquake Activity

City Distance Mag. Time & Date
Minimum magnitude displayed is 2.5.

Coastal Water Temperatures

Place Temperature

Stations

Nearby Weather Stations

Station Location Temp. Windchill Dew Point Humidity Wind Precip. Elev Updated Type